Time;durP1;ratioP1;P1;durP2;ratioP2;P2;SDS_P1;SDS_P2;PMS_P1;PMS_P2;Temp;Humidity;BMP_temperature;BMP_pressure;BME280_temperature;BME280_humidity;BME280_pressure;Samples;Min_cycle;Max_cycle;Signal;HPM_P1;HPM_P2
2022/01/27 00:00:36;;;;;;;31.73;11.65;;;5.90;99.90;;;;;;4822609;29;20050;-79
2022/01/27 00:03:15;;;;;;;25.70;11.30;;;5.80;99.90;;;;;;4813940;29;20062;-79
2022/01/27 00:05:48;;;;;;;33.60;11.50;;;5.80;99.90;;;;;;4814107;29;20041;-79
2022/01/27 00:08:21;;;;;;;26.17;11.90;;;5.80;99.90;;;;;;4819197;29;20046;-79
2022/01/27 00:10:58;;;;;;;29.35;11.07;;;5.70;99.90;;;;;;4809758;29;20174;-78
2022/01/27 00:13:31;;;;;;;29.48;11.02;;;5.80;99.90;;;;;;4841183;29;20188;-79
2022/01/27 00:16:16;;;;;;;25.67;11.00;;;5.80;99.90;;;;;;4815525;29;20489;-79
2022/01/27 00:18:46;;;;;;;24.98;11.73;;;5.80;99.90;;;;;;4823590;29;20062;-78
2022/01/27 00:21:14;;;;;;;23.00;9.82;;;5.80;99.90;;;;;;4811251;29;20054;-78
2022/01/27 00:23:44;;;;;;;21.52;10.23;;;5.90;99.90;;;;;;4822018;29;20085;-79
2022/01/27 00:26:11;;;;;;;25.42;11.02;;;5.80;99.90;;;;;;4816863;29;20042;-79
2022/01/27 00:28:37;;;;;;;27.90;10.88;;;5.80;99.90;;;;;;4815356;29;20082;-79
2022/01/27 00:31:06;;;;;;;29.20;11.23;;;5.80;99.90;;;;;;4811818;29;20055;-80
2022/01/27 00:33:31;;;;;;;26.30;10.07;;;5.80;99.90;;;;;;4823697;29;20054;-80
2022/01/27 00:35:57;;;;;;;;;;;5.70;99.90;;;;;;4814847;29;20068;-81
2022/01/27 00:38:23;;;;;;;25.13;11.95;;;5.70;99.90;;;;;;4834087;29;20289;-81
2022/01/27 00:40:48;;;;;;;;;;;5.70;99.90;;;;;;4809309;29;20046;-80
2022/01/27 00:43:18;;;;;;;29.33;11.40;;;5.70;99.90;;;;;;4808856;29;19929;-81
2022/01/27 00:45:43;;;;;;;24.23;11.02;;;5.70;99.90;;;;;;4808948;29;20051;-80
2022/01/27 00:48:09;;;;;;;;;;;5.70;99.90;;;;;;4809051;29;20855;-78
2022/01/27 00:50:40;;;;;;;26.67;11.95;;;5.80;99.90;;;;;;4808234;29;19924;-79
2022/01/27 00:53:19;;;;;;;25.70;11.27;;;5.80;99.90;;;;;;4808597;29;20085;-79
2022/01/27 00:55:44;;;;;;;27.65;11.00;;;5.70;99.90;;;;;;4824721;29;20054;-79
2022/01/27 00:58:32;;;;;;;;;;;5.70;99.90;;;;;;4808727;29;20495;-79
2022/01/27 01:01:02;;;;;;;29.20;12.73;;;5.60;99.90;;;;;;4809772;29;19921;-79
2022/01/27 01:03:36;;;;;;;29.92;12.63;;;5.50;99.90;;;;;;4808245;29;20054;-79
2022/01/27 01:16:41;;;;;;;26.30;11.35;;;5.60;99.90;;;;;;4808856;29;20054;-80
2022/01/27 01:30:19;;;;;;;31.60;12.57;;;5.60;99.90;;;;;;4814755;29;20045;-80
2022/01/27 01:35:09;;;;;;;31.85;12.27;;;5.50;99.90;;;;;;4826298;29;20141;-80
2022/01/27 01:37:40;;;;;;;24.42;10.88;;;5.50;99.90;;;;;;4826229;29;20062;-80
2022/01/27 01:40:12;;;;;;;28.98;12.73;;;5.50;99.90;;;;;;4839844;29;20050;-79
2022/01/27 01:42:38;;;;;;;27.65;12.63;;;5.50;99.90;;;;;;4841192;29;20045;-79
2022/01/27 01:45:05;;;;;;;;;;;5.40;99.90;;;;;;4825700;29;20480;-79
2022/01/27 01:47:30;;;;;;;27.48;12.07;;;5.40;99.90;;;;;;4842193;29;20042;-79
2022/01/27 01:49:56;;;;;;;;;;;5.30;99.90;;;;;;4826223;29;20530;-79
2022/01/27 01:52:22;;;;;;;28.77;11.57;;;5.40;99.90;;;;;;4841229;29;19925;-79
2022/01/27 01:54:48;;;;;;;29.00;12.38;;;5.40;99.90;;;;;;4825654;29;20085;-78
2022/01/27 01:57:13;;;;;;;;;;;5.40;99.90;;;;;;4826901;29;20503;-79
2022/01/27 01:59:39;;;;;;;27.30;12.23;;;5.50;99.90;;;;;;4824584;29;20023;-79
2022/01/27 02:02:04;;;;;;;;;;;6.40;99.90;;;;;;4808352;29;20046;-79
2022/01/27 02:04:30;;;;;;;31.42;12.20;;;5.60;99.90;;;;;;4808226;29;19948;-80
2022/01/27 02:06:59;;;;;;;;;;;5.70;99.90;;;;;;4807413;29;20050;-79
2022/01/27 02:09:50;;;;;;;32.85;12.15;;;6.60;99.90;;;;;;4807937;29;19928;-80
2022/01/27 02:18:08;;;;;;;27.42;12.70;;;5.90;99.90;;;;;;4813552;29;20046;-80
2022/01/27 02:20:36;;;;;;;27.17;11.98;;;6.00;99.90;;;;;;4813031;29;20122;-80
2022/01/27 02:23:04;;;;;;;30.80;11.52;;;5.90;99.90;;;;;;4825241;29;20147;-79
2022/01/27 02:25:30;;;;;;;25.67;12.13;;;6.10;99.90;;;;;;4824398;29;20042;-79
2022/01/27 02:27:56;;;;;;;;;;;6.00;99.90;;;;;;4824917;29;20049;-79
2022/01/27 02:30:23;;;;;;;32.13;12.73;;;6.10;99.90;;;;;;4825706;29;19931;-79
2022/01/27 02:32:53;;;;;;;22.95;10.93;;;6.10;99.90;;;;;;4825368;29;20082;-80
2022/01/27 02:35:27;;;;;;;30.58;13.20;;;6.10;99.90;;;;;;4825474;29;20491;-80
2022/01/27 02:37:53;;;;;;;25.75;12.10;;;6.20;99.90;;;;;;4825825;29;20046;-80
2022/01/27 02:40:19;;;;;;;28.85;12.15;;;6.20;99.90;;;;;;4825738;29;20502;-80
2022/01/27 02:42:45;;;;;;;25.17;12.45;;;6.30;99.90;;;;;;4825051;29;20057;-80
2022/01/27 02:45:17;;;;;;;;;;;6.20;99.90;;;;;;4826416;29;20049;-79
2022/01/27 02:47:43;;;;;;;26.67;11.15;;;6.20;99.90;;;;;;4822084;29;20073;-80
2022/01/27 02:50:08;;;;;;;;;;;6.30;99.90;;;;;;4811133;29;20535;-79
2022/01/27 02:52:34;;;;;;;29.52;11.27;;;6.20;99.90;;;;;;4810908;29;19928;-80
2022/01/27 02:54:59;;;;;;;;;;;6.20;99.90;;;;;;4827343;29;20141;-79
2022/01/27 02:57:25;;;;;;;23.98;10.52;;;6.20;99.90;;;;;;4810553;29;19978;-78
2022/01/27 02:59:52;;;;;;;29.50;11.48;;;6.20;99.90;;;;;;4810543;29;20062;-79
2022/01/27 03:02:22;;;;;;;26.95;10.10;;;6.30;99.90;;;;;;4830663;29;20042;-79
2022/01/27 03:04:48;;;;;;;29.52;10.48;;;6.30;99.90;;;;;;4844889;29;20050;-79
2022/01/27 03:07:22;;;;;;;23.00;10.52;;;6.30;99.90;;;;;;4828930;29;20137;-79
2022/01/27 03:09:48;;;;;;;;;;;6.30;99.90;;;;;;4828861;29;20161;-79
2022/01/27 03:12:16;;;;;;;30.45;10.70;;;6.40;99.90;;;;;;4826690;29;19968;-78
2022/01/27 03:14:42;;;;;;;27.55;10.38;;;6.40;99.90;;;;;;4828540;29;20050;-78
2022/01/27 03:17:10;;;;;;;;;;;6.40;99.90;;;;;;4828631;29;20410;-79
2022/01/27 03:19:37;;;;;;;28.00;11.10;;;6.40;99.90;;;;;;4828474;29;19931;-80
2022/01/27 03:22:07;;;;;;;25.30;9.93;;;6.30;99.90;;;;;;4828252;29;20037;-80
2022/01/27 03:24:34;;;;;;;24.58;10.13;;;6.40;99.90;;;;;;4827926;29;20410;-79
2022/01/27 03:27:00;;;;;;;27.13;9.65;;;6.40;99.90;;;;;;4845194;29;20046;-80
2022/01/27 03:29:25;;;;;;;;;;;6.40;99.90;;;;;;4828724;29;20054;-79
2022/01/27 03:31:51;;;;;;;;;;;6.40;99.90;;;;;;4810301;29;20322;-79
2022/01/27 03:34:17;;;;;;;;;;;6.40;99.90;;;;;;4810929;29;20286;-79
2022/01/27 03:36:42;;;;;;;;;;;7.40;99.90;;;;;;4810106;29;19928;-80
2022/01/27 03:39:09;;;;;;;;;;;6.40;99.90;;;;;;4810200;29;20000;-79
2022/01/27 03:41:36;;;;;;;;;;;6.50;99.90;;;;;;4826617;29;20302;-79
2022/01/27 03:44:02;;;;;;;;;;;6.50;99.90;;;;;;4841209;29;19931;-80
2022/01/27 03:46:30;;;;;;;;;;;6.50;99.90;;;;;;4828303;29;19924;-79
2022/01/27 03:48:59;;;;;;;;;;;6.60;99.90;;;;;;4828319;29;19931;-79
2022/01/27 03:51:50;;;;;;;;;;;6.50;99.90;;;;;;4840506;24;20051;-79
2022/01/27 03:54:16;;;;;;;;;;;6.20;99.90;;;;;;4827215;29;19972;-79
2022/01/27 03:56:41;;;;;;;;;;;6.60;99.90;;;;;;4828019;29;20020;-79
2022/01/27 03:59:07;;;;;;;;;;;5.60;99.90;;;;;;4813196;29;20403;-79
2022/01/27 04:02:06;;;;;;;;;;;6.40;99.90;;;;;;4809540;29;20343;-80
2022/01/27 04:04:47;;;;;;;;;;;5.60;99.90;;;;;;4810102;29;19925;-80
2022/01/27 04:07:27;;;;;;;;;;;6.60;99.90;;;;;;4795304;29;20315;-80
2022/01/27 04:10:11;;;;;;;;;;;7.80;99.90;;;;;;4810717;29;20004;-80
2022/01/27 04:12:36;;;;;;;;;;;6.60;99.90;;;;;;4809814;29;19928;-80
2022/01/27 04:15:03;;;;;;;;;;;6.50;99.90;;;;;;4809147;29;19924;-80
2022/01/27 04:17:28;;;;;;;;;;;6.60;99.90;;;;;;4810267;29;19960;-80
2022/01/27 04:19:54;;;;;;;;;;;6.70;99.90;;;;;;4809684;29;19967;-80
2022/01/27 04:22:19;;;;;;;;;;;6.60;99.90;;;;;;4809187;29;19924;-80
2022/01/27 04:24:45;;;;;;;;;;;6.60;99.90;;;;;;4826221;29;19947;-80
2022/01/27 04:27:17;;;;;;;;;;;6.60;99.90;;;;;;4828184;29;19930;-79
2022/01/27 04:29:46;;;;;;;;;;;6.60;99.90;;;;;;4827351;29;19932;-80
2022/01/27 04:32:21;;;;;;;;;;;6.60;99.90;;;;;;4827978;29;20402;-80
2022/01/27 04:34:47;;;;;;;;;;;6.60;99.90;;;;;;4825796;29;19928;-80
2022/01/27 04:37:13;;;;;;;;;;;6.60;99.90;;;;;;4827671;29;19925;-80
2022/01/27 04:39:51;;;;;;;;;;;6.60;99.90;;;;;;4827932;29;20400;-80
2022/01/27 04:42:28;;;;;;;;;;;6.70;99.90;;;;;;4827685;29;19928;-80
2022/01/27 04:45:00;;;;;;;;;;;6.60;99.90;;;;;;4843871;29;20052;-81
2022/01/27 04:47:33;;;;;;;;;;;6.60;99.90;;;;;;4827801;29;19924;-81
2022/01/27 04:49:59;;;;;;;;;;;6.60;99.90;;;;;;4825148;29;19928;-80
2022/01/27 04:52:26;;;;;;;;;;;6.50;99.90;;;;;;4809292;29;19967;-80
2022/01/27 04:55:08;;;;;;;;;;;6.50;99.90;;;;;;4809292;29;19929;-80
2022/01/27 04:57:36;;;;;;;;;;;6.50;99.90;;;;;;4825279;29;19943;-80
2022/01/27 05:00:02;;;;;;;;;;;6.50;99.90;;;;;;4809275;29;20274;-80
2022/01/27 05:02:47;;;;;;;;;;;6.50;99.90;;;;;;4808966;29;19928;-80
2022/01/27 05:05:13;;;;;;;;;;;6.50;99.90;;;;;;4809512;29;20015;-81
2022/01/27 05:07:39;;;;;;;;;;;6.50;99.90;;;;;;4809169;29;19952;-80
2022/01/27 05:10:12;;;;;;;;;;;6.50;99.90;;;;;;4808288;29;19924;-81
2022/01/27 05:12:48;;;;;;;;;;;6.50;99.90;;;;;;4808944;29;19924;-80
2022/01/27 05:15:13;;;;;;;;;;;6.50;99.90;;;;;;4808780;29;19967;-81
2022/01/27 05:17:39;;;;;;;;;;;6.60;99.90;;;;;;4824350;29;19964;-79
2022/01/27 05:20:05;;;;;;;;;;;6.50;99.90;;;;;;4809629;29;19960;-81
2022/01/27 05:22:31;;;;;;;;;;;6.60;99.90;;;;;;4808318;29;19967;-80
2022/01/27 05:24:57;;;;;;;;;;;6.60;99.90;;;;;;4823980;29;19935;-80
2022/01/27 05:27:22;;;;;;;;;;;6.60;99.90;;;;;;4809331;29;19929;-80
2022/01/27 05:29:52;;;;;;;;;;;6.50;99.90;;;;;;4814531;29;19969;-81
2022/01/27 05:32:18;;;;;;;;;;;6.50;99.90;;;;;;4815138;29;19972;-80
2022/01/27 05:34:43;;;;;;;;;;;6.50;99.90;;;;;;4832185;29;19976;-78
2022/01/27 05:37:09;;;;;;;;;;;6.60;99.90;;;;;;4818359;29;19925;-78
2022/01/27 05:39:37;;;;;;;;;;;6.50;99.90;;;;;;4833736;29;19932;-79
2022/01/27 05:42:03;;;;;;;;;;;6.50;99.90;;;;;;4816283;29;20297;-79
2022/01/27 05:44:30;;;;;;;;;;;6.50;99.90;;;;;;4817628;29;19924;-80
2022/01/27 05:46:59;;;;;;;;;;;6.50;99.90;;;;;;4810602;29;20322;-79
2022/01/27 05:49:24;;;;;;;;;;;6.50;99.90;;;;;;4808474;29;19924;-79
2022/01/27 05:51:50;;;;;;;;;;;6.50;99.90;;;;;;4808406;29;19925;-79
2022/01/27 05:54:16;;;;;;;;;;;6.50;99.90;;;;;;4808346;29;19929;-79
2022/01/27 05:56:41;;;;;;;;;;;6.70;99.90;;;;;;4807949;29;19921;-80
2022/01/27 05:59:07;;;;;;;;;;;6.50;99.90;;;;;;4807877;29;20335;-80
2022/01/27 06:01:32;;;;;;;;;;;6.50;99.90;;;;;;4808549;29;19920;-80
2022/01/27 06:03:58;;;;;;;;;;;6.50;99.90;;;;;;4818014;29;19980;-80
2022/01/27 06:06:23;;;;;;;;;;;6.50;99.90;;;;;;4826397;29;20027;-79
2022/01/27 06:12:04;;;;;;;;;;;6.50;99.90;;;;;;4864658;24;20369;-77
2022/01/27 06:14:30;;;;;;;;;;;7.90;99.90;;;;;;4825809;29;19924;-77
2022/01/27 06:17:14;;;;;;;;;;;6.50;99.90;;;;;;4825883;29;19924;-77
2022/01/27 06:19:55;;;;;;;;;;;5.60;99.90;;;;;;4825484;29;19920;-78
2022/01/27 06:22:32;;;;;;;;;;;5.80;99.90;;;;;;4810500;29;19929;-79
2022/01/27 06:24:58;;;;;;;;;;;6.60;99.90;;;;;;4811605;29;20380;-79
2022/01/27 06:27:33;;;;;;;;;;;6.60;99.90;;;;;;4819034;29;19921;-79
2022/01/27 06:30:05;;;;;;;;;;;5.70;99.90;;;;;;4829629;29;20428;-79
2022/01/27 06:32:41;;;;;;;;;;;5.80;99.90;;;;;;4829513;29;19932;-79
2022/01/27 06:38:45;;;;;;;;;;;6.70;99.90;;;;;;5282132;23;20030;-79
2022/01/27 06:55:21;;;;;;;;;;;6.70;99.90;;;;;;4786601;30;19935;-77
2022/01/27 07:03:04;;;;;;;;;;;6.80;99.90;;;;;;5365334;24;20015;-77
2022/01/27 07:05:32;;;;;;;;;;;6.90;99.90;;;;;;4823375;29;19925;-78
2022/01/27 07:07:57;;;;;;;;;;;6.80;99.90;;;;;;4819840;29;19921;-78
2022/01/27 07:10:23;;;;;;;;;;;6.90;99.90;;;;;;4819990;29;20028;-78
2022/01/27 07:12:48;;;;;;;;;;;6.90;99.90;;;;;;4828757;29;19924;-78
2022/01/27 07:15:14;;;;;;;;;;;6.90;99.90;;;;;;4826063;29;20007;-78
2022/01/27 07:17:49;;;;;;;;;;;6.90;99.90;;;;;;4809840;29;19982;-77
2022/01/27 07:20:15;;;;;;;;;;;7.00;99.90;;;;;;4833280;29;19930;-81
2022/01/27 07:22:40;;;;;;;;;;;7.00;99.90;;;;;;4837834;29;19925;-82
2022/01/27 07:30:24;;;;;;;;;;;7.00;99.90;;;;;;4842503;29;20293;-74
2022/01/27 07:32:49;;;;;;;;;;;7.00;99.90;;;;;;4827839;29;19924;-76
2022/01/27 07:38:56;;;;;;;;;;;7.10;99.90;;;;;;4838861;29;20025;-76
2022/01/27 07:41:33;;;;;;;;;;;6.30;99.90;;;;;;4828495;29;19967;-75
2022/01/27 07:44:00;;;;;;;;;;;6.20;99.90;;;;;;4828332;29;20015;-76
2022/01/27 07:46:53;;;;;;;;;;;7.10;99.90;;;;;;4827504;29;20266;-80
2022/01/27 07:49:37;;;;;;;;;;;7.10;99.90;;;;;;4829366;29;20060;-75
2022/01/27 07:52:22;;;;;;;;;;;7.00;99.90;;;;;;4842394;29;20394;-79
2022/01/27 07:54:48;;;;;;;;;;;6.60;99.90;;;;;;4827470;29;20373;-81
2022/01/27 08:04:03;;;;;;;;;;;6.20;99.90;;;;;;4825485;29;20374;-80
2022/01/27 08:06:47;;;;;;;;;;;8.10;99.90;;;;;;4826606;29;19928;-80
2022/01/27 08:09:21;;;;;;;;;;;7.20;99.90;;;;;;4843847;29;20015;-81
2022/01/27 08:14:25;;;;;;;;;;;7.20;99.90;;;;;;4917913;23;19931;-81
2022/01/27 08:16:51;;;;;;;;;;;7.30;99.90;;;;;;4841899;29;19999;-81
2022/01/27 08:19:16;;;;;;;;;;;7.30;99.90;;;;;;4843209;29;20023;-81
2022/01/27 08:21:42;;;;;;;;;;;7.30;99.90;;;;;;4843702;29;19932;-81
2022/01/27 08:24:07;;;;;;;;;;;7.30;99.90;;;;;;4844397;29;20406;-81
2022/01/27 08:26:43;;;;;;;;;;;7.40;99.90;;;;;;4844279;29;19976;-82
2022/01/27 08:29:13;;;;;;;;;;;7.40;99.90;;;;;;4839911;29;20365;-82
2022/01/27 08:32:01;;;;;;;;;;;7.40;99.90;;;;;;4832169;29;19934;-82
2022/01/27 08:34:37;;;;;;;;;;;7.40;99.90;;;;;;4827456;24;19932;-81
2022/01/27 08:37:07;;;;;;;;;;;7.40;99.90;;;;;;4815672;29;20072;-82
2022/01/27 08:39:33;;;;;;;;;;;7.40;99.90;;;;;;4816830;29;20015;-82
2022/01/27 08:41:59;;;;;;;;;;;7.40;99.90;;;;;;4808470;29;20370;-81
2022/01/27 08:44:24;;;;;;;;;;;7.40;99.90;;;;;;4931394;24;19925;-82
2022/01/27 08:46:50;;;;;;;;;;;7.30;99.90;;;;;;4806547;29;19926;-82
2022/01/27 08:49:18;;;;;;;;;;;7.40;99.90;;;;;;4806691;29;19925;-81
2022/01/27 08:51:43;;;;;;;;;;;7.30;99.90;;;;;;4808604;29;19925;-81
2022/01/27 08:54:09;;;;;;;;;;;7.40;99.90;;;;;;4825513;29;19996;-84
2022/01/27 08:56:34;;;;;;;;;;;7.40;99.90;;;;;;4808560;29;19924;-81
2022/01/27 08:59:00;;;;;;;;;;;7.40;99.90;;;;;;4808394;29;20011;-83
2022/01/27 09:01:27;;;;;;;;;;;7.40;99.90;;;;;;4824075;29;19929;-88
2022/01/27 09:03:53;;;;;;;;;;;7.50;99.90;;;;;;4799482;29;20014;-85
2022/01/27 09:06:19;;;;;;;;;;;7.50;99.90;;;;;;4824822;29;19972;-82
2022/01/27 09:08:45;;;;;;;;;;;7.60;99.90;;;;;;4811194;29;19925;-84
2022/01/27 09:11:10;;;;;;;;;;;7.60;99.90;;;;;;4827050;29;19925;-84
2022/01/27 09:13:37;;;;;;;;;;;7.70;99.90;;;;;;4829908;29;19932;-84
2022/01/27 09:16:06;;;;;;;;;;;7.70;99.90;;;;;;4831562;29;20016;-85
2022/01/27 09:18:33;;;;;;;;;;;7.80;99.90;;;;;;4819376;29;19928;-85
2022/01/27 09:21:00;;;;;;;;;;;7.80;99.90;;;;;;4811753;29;19925;-85
2022/01/27 09:23:26;;;;;;;;;;;7.90;99.90;;;;;;4811528;29;20333;-84
2022/01/27 09:25:56;;;;;;;;;;;8.40;99.90;;;;;;4809758;29;19933;-85
2022/01/27 09:28:21;;;;;;;;;;;7.90;99.90;;;;;;4800448;29;19932;-80
2022/01/27 09:30:47;;;;;;;;;;;8.00;99.90;;;;;;4804874;29;19925;-79
2022/01/27 09:33:14;;;;;;;;;;;8.00;99.90;;;;;;4790709;29;19929;-79
2022/01/27 09:35:40;;;;;;;;;;;8.60;99.90;;;;;;4820726;29;20448;-82
2022/01/27 09:38:05;;;;;;;;;;;9.40;99.90;;;;;;4807674;29;19931;-86
2022/01/27 09:40:47;;;;;;;;;;;9.60;99.90;;;;;;4801175;29;19981;-81
2022/01/27 09:43:13;;;;;;;;;;;9.50;99.90;;;;;;4824187;29;19934;-81
2022/01/27 09:45:39;;;;;;;;;;;9.40;99.90;;;;;;4809469;29;20382;-83
2022/01/27 09:48:14;;;;;;;;;;;9.30;99.90;;;;;;4807849;29;19925;-79
2022/01/27 09:53:10;;;;;;;;;;;9.00;99.90;;;;;;4818689;29;20388;-81
2022/01/27 09:55:36;;;;;;;;;;;8.90;99.90;;;;;;4823647;29;19927;-80
2022/01/27 09:58:02;;;;;;;;;;;8.90;99.90;;;;;;4822371;29;19929;-79
2022/01/27 10:00:28;;;;;;;;;;;8.90;99.90;;;;;;4805879;29;19924;-80
2022/01/27 10:03:05;;;;;;;;;;;8.80;99.90;;;;;;4821924;29;19929;-80
2022/01/27 10:05:31;;;;;;;;;;;8.80;99.90;;;;;;4800596;29;20358;-81
2022/01/27 10:08:01;;;;;;;;;;;8.80;99.90;;;;;;4822955;29;19920;-80
2022/01/27 10:10:27;;;;;;;;;;;8.70;99.90;;;;;;4823017;29;19975;-81
2022/01/27 10:12:54;;;;;;;;;;;8.70;99.90;;;;;;4822316;29;19972;-81
2022/01/27 10:15:21;;;;;;;;;;;8.80;99.90;;;;;;4807478;29;19977;-81
2022/01/27 10:18:02;;;;;;;;;;;9.50;99.90;;;;;;4792511;29;19929;-80
2022/01/27 10:20:30;;;;;;;;;;;9.00;99.90;;;;;;4782997;29;20251;-81
2022/01/27 10:23:18;;;;;;;;;;;9.00;99.90;;;;;;4804553;29;19924;-79
2022/01/27 10:25:53;;;;;;;;;;;9.20;99.90;;;;;;4784525;29;19929;-80
2022/01/27 10:28:35;;;;;;;;;;;9.60;99.90;;;;;;4803968;29;20285;-79
2022/01/27 10:31:19;;;;;;;;;;;10.30;99.90;;;;;;4805575;29;20366;-80
2022/01/27 10:36:22;;;;;;;;;;;10.90;99.90;;;;;;5842977;24;20261;-80
2022/01/27 10:38:58;;;;;;;;;;;11.40;99.90;;;;;;4806269;29;19925;-86
2022/01/27 10:41:44;;;;;;;;;;;11.70;99.90;;;;;;4857235;24;19911;-85
2022/01/27 10:44:15;;;;;;;;;;;13.00;99.90;;;;;;4825408;29;20011;-80
2022/01/27 10:46:49;;;;;;;;;;;12.40;99.90;;;;;;4842044;29;19959;-85
2022/01/27 10:49:27;;;;;;;;;;;12.10;99.90;;;;;;4829666;29;19975;-83
2022/01/27 10:51:55;;;;;;;;;;;11.40;99.90;;;;;;4843933;29;19924;-78
2022/01/27 10:54:34;;;;;;;;;;;10.70;99.90;;;;;;4826344;29;19920;-79
2022/01/27 10:57:04;;;;;;;;;;;10.40;99.90;;;;;;4825146;29;19929;-78
2022/01/27 10:59:32;;;;;;;;;;;10.10;99.90;;;;;;4825628;29;20266;-78
2022/01/27 11:02:06;;;;;;;;;;;9.90;99.90;;;;;;4840937;29;19952;-77
2022/01/27 11:04:32;;;;;;;;;;;9.80;99.90;;;;;;4825440;29;19927;-80
2022/01/27 11:06:59;;;;;;;;;;;9.70;99.90;;;;;;4844249;29;20022;-78
2022/01/27 11:09:27;;;;;;;;;;;9.70;99.90;;;;;;4853197;29;19930;-76
2022/01/27 11:11:54;;;;;;;;;;;9.60;99.90;;;;;;4848401;29;19924;-85
2022/01/27 11:14:20;;;;;;;;;;;9.70;99.90;;;;;;4828979;29;19925;-82
2022/01/27 11:16:49;;;;;;;;;;;11.20;99.90;;;;;;4844338;29;20312;-77
2022/01/27 11:19:52;;;;;;;;;;;9.60;99.90;;;;;;4843156;29;19931;-82
2022/01/27 11:22:29;;;;;;;;;;;9.80;99.90;;;;;;4837647;29;19983;-76
2022/01/27 11:27:40;;;;;;;;;;;10.40;99.90;;;;;;4839063;29;20284;-80
2022/01/27 11:30:08;;;;;;;;;;;10.80;99.90;;;;;;4828279;29;19928;-76
2022/01/27 11:32:39;;;;;;;;;;;10.90;99.90;;;;;;4828545;29;19947;-79
2022/01/27 11:35:21;;;;;;;;;;;10.90;99.90;;;;;;4851825;29;19930;-83
2022/01/27 11:38:04;;;;;;;;;;;10.70;99.90;;;;;;4834172;24;20373;-81
2022/01/27 11:40:46;;;;;;;;;;;10.60;99.90;;;;;;4827956;29;19934;-78
2022/01/27 11:43:40;;;;;;;;;;;10.30;99.90;;;;;;4842524;29;20011;-78
2022/01/27 11:46:17;;;;;;;;;;;10.20;99.90;;;;;;4821464;24;19924;-78
2022/01/27 11:49:17;;;;;;;;;;;10.10;99.90;;;;;;4827661;29;20019;-79
2022/01/27 11:52:05;;;;;;;;;;;9.70;99.90;;;;;;4819922;29;19983;-77
2022/01/27 11:54:46;;;;;;;;;;;9.80;99.90;;;;;;4809790;29;19928;-78
2022/01/27 12:04:07;;;;;;;;;;;9.70;99.90;;;;;;4843105;23;20040;-78
2022/01/27 12:07:01;;;;;;;;;;;10.10;99.90;;;;;;4825943;29;19931;-79
2022/01/27 12:09:27;;;;;;;;;;;9.50;99.90;;;;;;4818549;29;19932;-79
2022/01/27 12:14:39;;;;;;;;;;;10.70;99.90;;;;;;4859715;23;20249;-76
2022/01/27 12:17:26;;;;;;;;;;;10.80;99.90;;;;;;4838226;23;19992;-79
2022/01/27 12:19:51;;;;;;;;;;;11.10;99.90;;;;;;4818491;29;19925;-81
2022/01/27 12:22:20;;;;;;;;;;;11.30;99.90;;;;;;4819140;29;19924;-79
2022/01/27 12:24:57;;;;;;;;;;;11.20;99.90;;;;;;4826536;29;19924;-78
2022/01/27 12:27:29;;;;;;;;;;;11.30;99.90;;;;;;4822368;29;19928;-76
2022/01/27 12:29:56;;;;;;;;;;;11.30;99.90;;;;;;4815840;29;19925;-77
2022/01/27 12:32:22;;;;;;;;;;;11.40;99.90;;;;;;4842852;29;19924;-84
2022/01/27 12:34:49;;;;;;;;;;;11.60;99.90;;;;;;4842441;29;19972;-74
2022/01/27 12:46:36;;;;;;;;;;;14.50;99.90;;;;;;4824249;29;20322;-77
2022/01/27 12:49:03;;;;;;;;;;;16.00;99.90;;;;;;4808282;29;20012;-78
2022/01/27 12:55:11;;;;;;;;;;;15.60;99.90;;;;;;4751790;30;19984;-79
2022/01/27 13:04:32;;;;;;;;;;;16.60;99.90;;;;;;4923225;23;20093;-76
2022/01/27 13:17:06;;;;;;;;;;;12.90;99.90;;;;;;4857006;29;19976;-79
2022/01/27 13:26:44;;;;;;;;;;;11.40;99.90;;;;;;4773470;29;19925;-78
2022/01/27 13:35:12;;;;;;;;;;;10.10;99.90;;;;;;4792344;29;19936;-76
2022/01/27 13:37:44;;;;;;;;;;;10.50;99.90;;;;;;4825769;29;19972;-77
2022/01/27 13:46:35;;;;;;;;;;;10.20;99.90;;;;;;4840750;29;20026;-80
2022/01/27 13:49:34;;;;;;;;;;;;;;;;;;;;;
2022/01/27 13:52:19;;;;;;;;;;;10.00;99.90;;;;;;4843759;29;19932;-81
2022/01/27 13:55:06;;;;;;;;;;;9.90;99.90;;;;;;4840843;29;19924;-78
2022/01/27 13:57:34;;;;;;;;;;;10.20;99.90;;;;;;4833577;29;19928;-76
2022/01/27 14:03:18;;;;;;;;;;;10.30;99.90;;;;;;4859833;29;19919;-78
2022/01/27 14:09:30;;;;;;;;;;;9.50;99.90;;;;;;4847641;29;19919;-78
2022/01/27 14:27:54;;;;;;;;;;;9.70;99.90;;;;;;5613145;24;19972;-75
2022/01/27 14:30:23;;;;;;;;;;;9.90;99.90;;;;;;4820882;29;19929;-74
2022/01/27 14:33:01;;;;;;;;;;;9.60;99.90;;;;;;4832111;29;20266;-76
2022/01/27 14:35:26;;;;;;;;;;;10.60;99.90;;;;;;4794900;29;19927;-78
2022/01/27 14:38:26;;;;;;;;;;;9.50;99.90;;;;;;4843489;29;19924;-81
2022/01/27 14:40:52;;;;;;;;;;;9.30;99.90;;;;;;4821139;29;19963;-77
2022/01/27 14:43:17;;;;;;;;;;;10.30;99.90;;;;;;4827100;29;19963;-79
2022/01/27 14:45:44;;;;;;;;;;;9.30;99.90;;;;;;4819376;29;20336;-76
2022/01/27 14:48:10;;;;;;;;;;;9.30;99.90;;;;;;4843713;29;19931;-77
2022/01/27 14:50:48;;;;;;;;;;;9.20;99.90;;;;;;4828933;29;19924;-79
2022/01/27 14:53:14;;;;;;;;;;;9.60;99.90;;;;;;4813148;29;19931;-78
2022/01/27 14:56:12;;;;;;;;;;;9.50;99.90;;;;;;4824314;29;19921;-81
2022/01/27 14:58:51;;;;;;;;;;;;;;;;;;;;;
2022/01/27 15:02:12;;;;;;;;;;;8.90;99.90;;;;;;4826487;29;20008;-81
2022/01/27 15:05:00;;;;;;;;;;;10.10;99.90;;;;;;4816081;29;19932;-80
2022/01/27 15:07:28;;;;;;;;;;;8.40;99.90;;;;;;4824762;29;19920;-79
2022/01/27 15:10:25;;;;;;;;;;;10.00;99.90;;;;;;4809264;29;19924;-80
2022/01/27 15:22:46;;;;;;;;;;;8.00;99.90;;;;;;4820946;29;19978;-82
2022/01/27 15:25:24;;;;;;;;;;;7.30;99.90;;;;;;4811224;29;19935;-80
2022/01/27 15:27:50;;;;;;;;;;;8.20;99.90;;;;;;4809157;29;19925;-81
2022/01/27 15:33:55;;;;;;;;;;;7.00;99.90;;;;;;4843612;29;19924;-80
2022/01/27 15:36:36;;;;;;;;;;;9.70;99.90;;;;;;4829657;29;19932;-78
2022/01/27 15:42:51;;;;;;;;;;;8.80;99.90;;;;;;4844947;29;19928;-80
2022/01/27 15:55:00;;;;;;;;;;;7.40;99.90;;;;;;5183122;24;19952;-80
2022/01/27 16:01:02;;;;;;;;;;;8.00;99.90;;;;;;4823864;29;19989;-81
2022/01/27 16:15:50;;;;;;;;;;;7.60;99.90;;;;;;5716315;23;19998;-79
2022/01/27 16:18:15;;;;;;;;;;;7.60;99.90;;;;;;4827013;29;20270;-80
2022/01/27 16:20:43;;;;;;;;;;;7.60;99.90;;;;;;4825698;29;19935;-85
2022/01/27 16:23:12;;;;;;;;;;;7.60;99.90;;;;;;4827481;29;20266;-77
2022/01/27 16:25:37;;;;;;;;;;;7.50;99.90;;;;;;4826774;29;19931;-78
2022/01/27 16:43:13;;;;;;;;;;;7.00;99.90;;;;;;5050974;24;20011;-79
2022/01/27 17:04:40;;;;;;;;;;;6.00;99.90;;;;;;4827099;29;19925;-80
2022/01/27 17:07:24;;;;;;;;;;;6.90;99.90;;;;;;4806146;29;19922;-78
2022/01/27 17:09:53;;;;;;;;;;;6.90;99.90;;;;;;4842812;29;19924;-78
2022/01/27 17:15:34;;;;;;;;;;;8.30;99.90;;;;;;4844566;29;19928;-77
2022/01/27 17:18:28;;;;;;;;;;;6.10;99.90;;;;;;4812102;29;20033;-80
2022/01/27 17:20:53;;;;;;;;;;;6.60;99.90;;;;;;4808814;29;20392;-77
2022/01/27 17:23:19;;;;;;;;;;;7.00;99.90;;;;;;4821210;29;19924;-82
2022/01/27 17:26:22;;;;;;;;;;;6.90;99.90;;;;;;4818540;29;19993;-77
2022/01/27 17:28:57;;;;;;;;;;;7.40;99.90;;;;;;4823151;29;19964;-76
2022/01/27 17:31:22;;;;;;;;;;;7.80;99.90;;;;;;4826290;29;20361;-77
2022/01/27 17:40:22;;;;;;;;;;;6.20;99.90;;;;;;5120443;23;20104;-77
2022/01/27 17:43:04;;;;;;;;;;;4.60;99.90;;;;;;4824919;29;20278;-76
2022/01/27 17:45:48;;;;;;;;;;;6.70;99.90;;;;;;4817219;29;19924;-77
2022/01/27 17:48:17;;;;;;;;;;;6.80;99.90;;;;;;4812423;29;20011;-76
2022/01/27 17:50:44;;;;;;;;;;;6.80;99.90;;;;;;4830634;23;19924;-81
2022/01/27 17:53:09;;;;;;;;;;;6.90;99.90;;;;;;4810629;29;19971;-77
2022/01/27 17:55:35;;;;;;;;;;;6.90;99.90;;;;;;4825688;29;20357;-80
2022/01/27 17:58:01;;;;;;;;;;;6.80;99.90;;;;;;4820938;29;19954;-80
2022/01/27 18:00:26;;;;;;;;;;;6.80;99.90;;;;;;4825253;29;20297;-81
2022/01/27 18:02:52;;;;;;;;;;;6.80;99.90;;;;;;4824193;29;19980;-85
2022/01/27 18:05:18;;;;;;;;;;;6.70;99.90;;;;;;4845856;29;19932;-82
2022/01/27 18:07:47;;;;;;;;;;;6.70;99.90;;;;;;4841219;29;20007;-78
2022/01/27 18:10:13;;;;;;;;;;;6.60;99.90;;;;;;4812652;29;20440;-77
2022/01/27 18:12:41;;;;;;;;;;;6.50;99.90;;;;;;4815469;29;20001;-77
2022/01/27 18:15:07;;;;;;;;;;;6.40;99.90;;;;;;4813834;29;20380;-77
2022/01/27 18:17:33;;;;;;;;;;;6.30;99.90;;;;;;4821924;29;19924;-77
2022/01/27 18:19:59;;;;;;;;;;;7.70;99.90;;;;;;4825962;29;19924;-78
2022/01/27 18:22:28;;;;;;;;;;;6.20;99.90;;;;;;4842036;29;19931;-79
2022/01/27 18:25:29;;;;;;;;;;;;;;;;;;;;;
2022/01/27 18:28:16;;;;;;;;;;;6.10;99.90;;;;;;4831619;29;20045;-78
2022/01/27 18:30:41;;;;;;;;;;;6.00;99.90;;;;;;4812656;29;20011;-79
2022/01/27 18:33:07;;;;;;;;;;;7.70;99.90;;;;;;4838125;29;20061;-80
2022/01/27 18:35:32;;;;;;;;;;;6.00;99.90;;;;;;4825363;29;19928;-76
2022/01/27 18:37:58;;;;;;;;;;;5.90;99.90;;;;;;4841357;29;19924;-80
2022/01/27 18:40:24;;;;;;;;;;;5.90;99.90;;;;;;4823690;29;19924;-78
2022/01/27 18:42:50;;;;;;;;;;;5.90;99.90;;;;;;4844703;29;19992;-80